Airfield :







YOU CAN JOIN US ON...

 
LOGIN :

Register | Disclaimer

   EN    FR    IT 

 









Legend :    VFR   Marginal VFR   IFR   Intensive IFR   Very Intensive IFR
Visi :
Ceiling :
>= 8 km
>= 3000ft
5 to 8 km
1000 to 3000 ft
1500m to 5 km
500 to 1000 ft
800 to 1500m
200 to 500 ft
< 800m
< 200 ft
Symbols :   Thunderstorms  Fog  Heavy snow  Heavy precipitations  Wind > 20 kt







- Airport Elevation : 333 ft


KWVL - Waterville Robert Lafleur

CURRENT METAR :
  • 200656Z AUTO 19005KT 5SM -RA BR OVC003 15/15 A2974 RMK AO2 SLP096 P0003 T01500150

EXPIRED METARs :
  • 200556Z AUTO 19006KT 7SM -RA OVC003 14/14 A2975 RMK AO2 SLP099 P0003 60005 T01440139 10150 20139 50001
  • 200520Z AUTO 19007KT 6SM RA BR OVC003 14/14 A2976 RMK AO2 P0001
  • 200456Z AUTO VRB05KT 7SM -RA OVC005 14/14 A2976 RMK AO2 RAB0357 SLP103 P0002 T01390139 402060056
  • 200414Z AUTO 19007KT 140V210 10SM -RA BKN007 BKN110 14/13 A2977 RMK AO2 RAB0357 P0000
  • 200404Z AUTO 20006KT 10SM -RA SCT007 BKN110 14/13 A2976 RMK AO2 RAB0357 P0000

TAF N/A
KZBW FIR / North America



MET'MAP, your aeronautical weather chart ! - Copyright ORBIFLY December 2007 - Disclaimer

ORBIFLY MET'MAP TEAM :

Programming & Development : Alexandra Zaïnal
Concept & Development : Baudouin d'Aumeries
Co-Development & Prog : Marc-Olivier Méhu
Technical & hardware support : Manuel Goepfert

Contact : metmap@orbifly.com




SOURCES & CREDITS :

   NOAA